createdAt,value
2018-12-27T00:01:04.898Z,12.15
2018-12-27T00:02:10.176Z,12.88
2018-12-27T00:03:15.561Z,11.20
2018-12-27T00:04:20.812Z,10.50
2018-12-27T00:05:27.441Z,11.43
2018-12-27T00:06:32.513Z,10.75
2018-12-27T00:07:37.535Z,11.25
2018-12-27T00:08:42.832Z,9.58
2018-12-27T00:09:47.875Z,9.78
2018-12-27T00:10:55.459Z,10.50
2018-12-27T00:12:00.560Z,10.28
2018-12-27T00:13:05.714Z,11.20
2018-12-27T00:14:11.582Z,10.60
2018-12-27T00:15:18.123Z,10.90
2018-12-27T00:16:25.221Z,11.57
2018-12-27T00:17:34.294Z,8.95
2018-12-27T00:18:39.565Z,10.63
2018-12-27T00:19:45.205Z,10.20
2018-12-27T00:20:53.035Z,10.95
2018-12-27T00:22:00.596Z,11.08
2018-12-27T00:23:05.879Z,10.78
2018-12-27T00:24:16.150Z,11.20
2018-12-27T00:25:21.631Z,10.18
2018-12-27T00:26:28.527Z,11.12
2018-12-27T00:27:37.703Z,10.55
2018-12-27T00:28:48.412Z,10.38
2018-12-27T00:29:53.550Z,10.25
2018-12-27T00:30:58.769Z,10.10
2018-12-27T00:32:04.508Z,10.65
2018-12-27T00:33:09.985Z,11.33
2018-12-27T00:34:15.186Z,10.45
2018-12-27T00:35:20.380Z,8.63
2018-12-27T00:36:25.684Z,9.50
2018-12-27T00:37:31.192Z,10.90
2018-12-27T00:38:38.026Z,10.90
2018-12-27T00:39:43.185Z,10.70
2018-12-27T00:40:53.522Z,10.00
2018-12-27T00:41:59.212Z,9.75
2018-12-27T00:43:04.654Z,9.43
2018-12-27T00:44:16.520Z,8.93
2018-12-27T00:45:21.812Z,9.90
2018-12-27T00:46:27.191Z,9.80
2018-12-27T00:47:32.446Z,10.03
2018-12-27T00:48:37.882Z,10.13
2018-12-27T00:49:44.847Z,10.32
2018-12-27T00:50:50.487Z,9.80
2018-12-27T00:51:55.899Z,9.58
2018-12-27T00:53:01.117Z,9.33
2018-12-27T00:54:07.604Z,9.23
2018-12-27T00:55:12.898Z,8.90
2018-12-27T00:56:18.200Z,9.55
2018-12-27T00:57:23.458Z,9.25
2018-12-27T00:58:28.747Z,9.60
2018-12-27T00:59:34.020Z,8.98
2018-12-27T01:00:39.211Z,8.83
2018-12-27T01:01:47.283Z,9.63
2018-12-27T01:02:52.967Z,9.48
2018-12-27T01:03:58.967Z,10.90
2018-12-27T01:05:06.293Z,9.00
2018-12-27T01:06:11.545Z,9.65
2018-12-27T01:07:18.310Z,8.68
2018-12-27T01:08:23.589Z,8.33
2018-12-27T01:09:29.335Z,9.90
2018-12-27T01:10:34.577Z,9.53
2018-12-27T01:11:40.099Z,9.13
2018-12-27T01:12:46.935Z,8.15
2018-12-27T01:13:52.374Z,8.10
2018-12-27T01:14:58.054Z,9.08
2018-12-27T01:16:03.247Z,9.08
2018-12-27T01:17:08.617Z,9.55
2018-12-27T01:18:13.775Z,8.73
2018-12-27T01:19:19.062Z,9.10
2018-12-27T01:20:26.559Z,9.10
2018-12-27T01:21:32.344Z,9.53
2018-12-27T01:22:37.556Z,9.55
2018-12-27T01:23:44.119Z,9.45
2018-12-27T01:24:49.377Z,9.95
2018-12-27T01:25:57.064Z,9.58
2018-12-27T01:27:02.248Z,9.48
2018-12-27T01:28:07.722Z,9.15
2018-12-27T01:29:13.300Z,9.05
2018-12-27T01:30:18.491Z,9.60
2018-12-27T01:31:23.823Z,9.55
2018-12-27T01:32:29.506Z,9.93
2018-12-27T01:33:34.683Z,9.63
2018-12-27T01:34:39.952Z,9.25
2018-12-27T01:35:46.146Z,9.30
2018-12-27T01:36:51.334Z,9.98
2018-12-27T01:37:56.535Z,10.88
2018-12-27T01:39:01.788Z,10.15
2018-12-27T01:40:07.324Z,10.55
2018-12-27T01:41:12.523Z,8.90
2018-12-27T01:42:22.014Z,9.55
2018-12-27T01:43:24.884Z,9.48
2018-12-27T01:44:30.509Z,10.03
2018-12-27T01:45:35.783Z,9.35
2018-12-27T01:46:40.948Z,10.32
2018-12-27T01:47:46.151Z,8.58
2018-12-27T01:48:51.486Z,9.20
2018-12-27T01:49:59.569Z,10.03
2018-12-27T01:51:04.851Z,9.90
2018-12-27T01:52:10.028Z,8.25
2018-12-27T01:53:15.200Z,11.05
2018-12-27T01:54:20.427Z,10.43
2018-12-27T01:55:27.281Z,10.40
2018-12-27T01:56:33.827Z,11.85
2018-12-27T01:57:39.081Z,10.90
2018-12-27T01:58:44.295Z,10.55
2018-12-27T01:59:57.919Z,10.15
2018-12-27T02:01:08.376Z,10.70
2018-12-27T02:02:13.651Z,10.68
2018-12-27T02:03:26.473Z,10.50
2018-12-27T02:04:27.144Z,9.13
2018-12-27T02:05:32.384Z,10.10
2018-12-27T02:06:38.178Z,8.30
2018-12-27T02:07:43.372Z,8.73
2018-12-27T02:08:48.595Z,10.43
2018-12-27T02:09:53.860Z,9.58
2018-12-27T02:10:59.154Z,10.72
2018-12-27T02:12:04.560Z,9.90
2018-12-27T02:13:09.805Z,11.38
2018-12-27T02:14:14.996Z,10.85
2018-12-27T02:15:20.316Z,9.85
2018-12-27T02:16:25.499Z,10.30
2018-12-27T02:17:30.728Z,10.85
2018-12-27T02:18:35.968Z,10.53
2018-12-27T02:19:41.136Z,10.53
2018-12-27T02:20:46.545Z,10.82
2018-12-27T02:21:51.695Z,9.60
2018-12-27T02:22:57.493Z,10.25
2018-12-27T02:24:02.706Z,10.20
2018-12-27T02:25:08.479Z,11.43
2018-12-27T02:26:13.821Z,10.53
2018-12-27T02:27:19.327Z,9.70
2018-12-27T02:28:24.920Z,11.45
2018-12-27T02:29:30.229Z,11.03
2018-12-27T02:30:35.409Z,10.53
2018-12-27T02:31:40.923Z,9.88
2018-12-27T02:32:46.186Z,10.35
2018-12-27T02:33:51.743Z,10.43
2018-12-27T02:34:57.151Z,12.30
2018-12-27T02:36:02.319Z,10.88
2018-12-27T02:37:08.064Z,11.20
2018-12-27T02:38:13.809Z,10.38
2018-12-27T02:39:19.142Z,9.95
2018-12-27T02:40:25.915Z,10.20
2018-12-27T02:41:31.098Z,10.45
2018-12-27T02:42:36.308Z,11.25
2018-12-27T02:43:41.622Z,11.10
2018-12-27T02:44:47.074Z,10.35
2018-12-27T02:45:52.286Z,10.43
2018-12-27T02:46:57.606Z,11.40
2018-12-27T02:48:02.956Z,11.00
2018-12-27T02:49:09.029Z,11.25
2018-12-27T02:50:14.496Z,11.55
2018-12-27T02:51:21.420Z,10.98
2018-12-27T02:52:27.364Z,10.78
2018-12-27T02:53:32.578Z,10.60
2018-12-27T02:54:37.753Z,9.88
2018-12-27T02:55:45.875Z,9.38
2018-12-27T02:56:51.039Z,9.83
2018-12-27T02:58:03.639Z,10.82
2018-12-27T02:59:11.315Z,10.63
2018-12-27T03:00:17.271Z,11.40
2018-12-27T03:01:22.668Z,9.75
2018-12-27T03:02:28.736Z,9.85
2018-12-27T03:03:34.398Z,9.48
2018-12-27T03:04:39.623Z,10.50
2018-12-27T03:05:44.788Z,9.45
2018-12-27T03:06:50.039Z,10.43
2018-12-27T03:07:55.223Z,11.00
2018-12-27T03:09:01.460Z,10.25
2018-12-27T03:10:06.728Z,10.88
2018-12-27T03:11:13.459Z,11.10
2018-12-27T03:12:26.251Z,10.13
2018-12-27T03:13:32.654Z,11.10
2018-12-27T03:14:41.886Z,10.75
2018-12-27T03:15:48.417Z,10.80
2018-12-27T03:16:53.822Z,10.13
2018-12-27T03:17:58.984Z,10.00
2018-12-27T03:19:04.161Z,10.72
2018-12-27T03:20:09.458Z,9.13
2018-12-27T03:21:14.958Z,9.83
2018-12-27T03:22:20.139Z,11.80
2018-12-27T03:23:28.039Z,10.08
2018-12-27T03:24:36.272Z,9.78
2018-12-27T03:25:42.219Z,9.85
2018-12-27T03:26:47.534Z,9.75
2018-12-27T03:27:52.688Z,10.55
2018-12-27T03:28:57.864Z,11.30
2018-12-27T03:30:03.597Z,11.28
2018-12-27T03:31:08.866Z,11.60
2018-12-27T03:32:14.290Z,11.20
2018-12-27T03:33:19.551Z,9.90
2018-12-27T03:34:24.726Z,10.50
2018-12-27T03:35:30.268Z,11.18
2018-12-27T03:36:35.550Z,9.20
2018-12-27T03:37:40.758Z,10.40
2018-12-27T03:38:45.942Z,9.88
2018-12-27T03:39:51.360Z,9.20
2018-12-27T03:40:56.643Z,10.05
2018-12-27T03:42:01.847Z,10.75
2018-12-27T03:43:07.051Z,10.72
2018-12-27T03:44:12.557Z,10.30
2018-12-27T03:45:17.780Z,9.88
2018-12-27T03:46:23.182Z,11.60
2018-12-27T03:47:28.411Z,10.30
2018-12-27T03:48:33.704Z,11.90
2018-12-27T03:49:39.028Z,10.08
2018-12-27T03:50:44.328Z,10.50
2018-12-27T03:51:49.595Z,10.65
2018-12-27T03:52:54.768Z,10.20
2018-12-27T03:54:03.086Z,9.13
2018-12-27T03:55:08.947Z,10.03
2018-12-27T03:56:14.259Z,10.40
2018-12-27T03:57:19.526Z,11.35
2018-12-27T03:58:24.914Z,8.90
2018-12-27T03:59:37.052Z,11.05
2018-12-27T04:00:42.546Z,9.83
2018-12-27T04:01:48.030Z,11.30
2018-12-27T04:02:53.184Z,10.00
2018-12-27T04:04:01.521Z,10.13
2018-12-27T04:05:05.195Z,10.50
2018-12-27T04:06:10.928Z,9.30
2018-12-27T04:07:16.129Z,9.88
2018-12-27T04:08:21.315Z,9.23
2018-12-27T04:09:29.492Z,9.78
2018-12-27T04:10:34.677Z,10.30
2018-12-27T04:11:39.835Z,9.45
2018-12-27T04:12:45.124Z,8.88
2018-12-27T04:13:50.309Z,9.30
2018-12-27T04:14:55.482Z,10.13
2018-12-27T04:16:00.504Z,9.60
2018-12-27T04:17:05.526Z,9.50
2018-12-27T04:18:13.827Z,9.03
2018-12-27T04:19:18.922Z,9.18
2018-12-27T04:20:24.038Z,9.03
2018-12-27T04:21:29.263Z,9.08
2018-12-27T04:22:34.369Z,8.43
2018-12-27T04:23:40.934Z,9.68
2018-12-27T04:24:46.641Z,9.25
2018-12-27T04:25:54.680Z,9.18
2018-12-27T04:26:59.760Z,9.73
2018-12-27T04:28:04.887Z,9.48
2018-12-27T04:29:09.953Z,8.70
2018-12-27T04:30:15.179Z,7.83
2018-12-27T04:31:21.080Z,8.60
2018-12-27T04:32:26.329Z,8.95
2018-12-27T04:33:31.746Z,9.25
2018-12-27T04:34:37.151Z,8.55
2018-12-27T04:35:42.345Z,9.20
2018-12-27T04:36:48.294Z,9.68
2018-12-27T04:37:53.343Z,9.85
2018-12-27T04:38:58.351Z,8.93
2018-12-27T04:40:03.355Z,8.73
2018-12-27T04:41:08.362Z,9.88
2018-12-27T04:42:13.803Z,8.53
2018-12-27T04:43:19.771Z,9.05
2018-12-27T04:44:25.124Z,8.88
2018-12-27T04:45:30.084Z,9.75
2018-12-27T04:46:35.053Z,9.23
2018-12-27T04:47:40.027Z,9.23
2018-12-27T04:48:45.053Z,10.20
2018-12-27T04:49:50.051Z,9.68
2018-12-27T04:50:55.031Z,9.63
2018-12-27T04:52:00.147Z,9.00
2018-12-27T04:53:05.489Z,9.70
2018-12-27T04:54:10.662Z,10.78
2018-12-27T04:55:15.843Z,9.13
2018-12-27T04:58:27.311Z,10.65
2018-12-27T04:59:35.412Z,8.75
2018-12-27T05:00:40.382Z,9.03
2018-12-27T05:01:45.391Z,9.30
2018-12-27T05:02:50.439Z,8.68
2018-12-27T05:03:55.458Z,9.65
2018-12-27T05:05:00.744Z,9.50
2018-12-27T05:06:07.630Z,11.30
2018-12-27T05:07:12.647Z,10.60
2018-12-27T05:08:17.696Z,10.08
2018-12-27T05:09:22.857Z,9.80
2018-12-27T05:10:28.237Z,11.00
2018-12-27T05:11:34.027Z,11.38
2018-12-27T05:12:43.874Z,10.43
2018-12-27T05:13:48.892Z,11.35
2018-12-27T05:14:53.963Z,10.43
2018-12-27T05:15:59.187Z,9.75
2018-12-27T05:17:04.199Z,10.48
2018-12-27T05:18:09.276Z,8.65
2018-12-27T05:19:14.444Z,10.78
2018-12-27T05:20:19.431Z,10.80
2018-12-27T05:21:24.495Z,10.30
2018-12-27T05:22:29.540Z,9.25
2018-12-27T05:23:35.079Z,10.60
2018-12-27T05:24:42.909Z,9.63
2018-12-27T05:25:48.332Z,10.50
2018-12-27T05:26:53.576Z,10.00
2018-12-27T05:27:58.791Z,11.20
2018-12-27T05:29:04.272Z,9.95
2018-12-27T05:30:10.138Z,12.05
2018-12-27T05:31:17.664Z,10.70
2018-12-27T05:32:23.082Z,10.15
2018-12-27T05:33:28.179Z,10.00
2018-12-27T05:34:33.228Z,11.18
2018-12-27T05:35:38.437Z,10.65
2018-12-27T05:36:43.463Z,10.75
2018-12-27T05:37:48.522Z,10.90
2018-12-27T05:38:53.566Z,11.57
2018-12-27T05:39:58.967Z,11.63
2018-12-27T05:41:04.215Z,11.05
2018-12-27T05:42:09.495Z,10.70
2018-12-27T05:43:14.510Z,9.80
2018-12-27T05:44:19.547Z,9.55
2018-12-27T05:45:24.566Z,10.95
2018-12-27T05:46:29.607Z,9.80
2018-12-27T05:47:34.696Z,9.83
2018-12-27T05:48:39.703Z,10.78
2018-12-27T05:49:44.719Z,10.18
2018-12-27T05:50:49.734Z,9.58
2018-12-27T05:51:55.163Z,10.43
2018-12-27T05:53:00.346Z,9.73
2018-12-27T05:54:05.535Z,9.53
2018-12-27T05:55:10.583Z,10.40
2018-12-27T05:56:15.611Z,10.13
2018-12-27T05:57:20.654Z,10.58
2018-12-27T05:58:25.729Z,9.70
2018-12-27T05:59:30.793Z,9.20
2018-12-27T06:00:36.270Z,10.03
2018-12-27T06:01:44.370Z,9.23
2018-12-27T06:02:49.437Z,10.75
2018-12-27T06:03:54.431Z,9.60
2018-12-27T06:04:59.436Z,10.45
2018-12-27T06:06:04.462Z,9.20
2018-12-27T06:07:10.818Z,9.85
2018-12-27T06:08:15.840Z,10.60
2018-12-27T06:09:20.967Z,9.80
2018-12-27T06:10:25.971Z,11.65
2018-12-27T06:11:31.088Z,10.30
2018-12-27T06:12:38.703Z,10.53
2018-12-27T06:13:43.764Z,9.90
2018-12-27T06:14:51.563Z,10.30
2018-12-27T06:15:56.688Z,10.32
2018-12-27T06:17:01.812Z,8.98
2018-12-27T06:18:06.861Z,11.00
2018-12-27T06:19:11.880Z,10.20
2018-12-27T06:20:16.910Z,9.70
2018-12-27T06:21:22.003Z,10.23
2018-12-27T06:22:27.471Z,10.65
2018-12-27T06:23:32.510Z,9.70
2018-12-27T06:24:41.163Z,9.65
2018-12-27T06:25:46.165Z,10.30
2018-12-27T06:26:57.411Z,9.85
2018-12-27T06:28:05.150Z,9.75
2018-12-27T06:29:10.649Z,9.85
2018-12-27T06:30:15.798Z,10.48
2018-12-27T06:31:21.374Z,12.28
2018-12-27T06:32:26.627Z,10.35
2018-12-27T06:33:32.099Z,10.65
2018-12-27T06:34:41.426Z,10.93
2018-12-27T06:35:45.250Z,11.10
2018-12-27T06:36:56.389Z,10.20
2018-12-27T06:38:11.430Z,10.70
2018-12-27T06:39:22.645Z,12.10
2018-12-27T06:40:28.079Z,12.70
2018-12-27T06:41:33.745Z,14.95
2018-12-27T06:42:38.978Z,15.43
2018-12-27T06:43:44.549Z,23.45
2018-12-27T06:44:49.742Z,33.18
2018-12-27T06:46:08.332Z,21.93
2018-12-27T06:47:22.653Z,18.23
2018-12-27T06:48:28.543Z,19.90
2018-12-27T06:49:37.747Z,27.62
2018-12-27T06:50:43.032Z,15.55
2018-12-27T06:51:49.224Z,15.05
2018-12-27T06:52:55.014Z,11.10
2018-12-27T06:54:03.073Z,12.25
2018-12-27T06:55:09.047Z,15.00
2018-12-27T06:56:24.786Z,12.00
2018-12-27T06:57:33.655Z,12.40
2018-12-27T06:58:38.882Z,10.00
2018-12-27T06:59:44.035Z,10.28
2018-12-27T07:00:50.874Z,11.40
2018-12-27T07:01:57.466Z,16.48
2018-12-27T07:03:02.985Z,11.05
2018-12-27T07:04:08.026Z,12.15
2018-12-27T07:05:15.526Z,11.25
2018-12-27T07:06:26.971Z,11.10
2018-12-27T07:07:34.199Z,15.60
2018-12-27T07:08:39.375Z,10.98
2018-12-27T07:09:44.491Z,12.10
2018-12-27T07:10:50.048Z,10.65
2018-12-27T07:11:56.406Z,10.03
2018-12-27T07:13:01.700Z,12.37
2018-12-27T07:14:07.131Z,10.98
2018-12-27T07:15:12.315Z,9.70
2018-12-27T07:16:17.526Z,10.70
2018-12-27T07:17:23.755Z,9.93
2018-12-27T07:18:28.779Z,10.65
2018-12-27T07:19:34.889Z,12.00
2018-12-27T07:20:46.673Z,11.90
2018-12-27T07:21:53.112Z,9.75
2018-12-27T07:23:00.951Z,10.55
2018-12-27T07:24:06.051Z,9.68
2018-12-27T07:25:11.204Z,10.55
2018-12-27T07:26:16.215Z,8.98
2018-12-27T07:27:21.235Z,10.00
2018-12-27T07:28:27.447Z,10.40
2018-12-27T07:29:35.803Z,9.50
2018-12-27T07:30:44.306Z,10.90
2018-12-27T07:31:49.506Z,10.25
2018-12-27T07:32:54.996Z,12.45
2018-12-27T07:34:01.402Z,14.13
2018-12-27T07:35:06.605Z,13.22
2018-12-27T07:36:11.655Z,13.10
2018-12-27T07:37:16.675Z,15.32
2018-12-27T07:38:23.566Z,14.85
2018-12-27T07:39:28.576Z,14.25
2018-12-27T07:40:33.652Z,16.97
2018-12-27T07:41:38.847Z,17.77
2018-12-27T07:42:44.940Z,15.15
2018-12-27T07:44:00.359Z,17.23
2018-12-27T07:45:08.413Z,16.10
2018-12-27T07:46:13.543Z,14.70
2018-12-27T07:47:18.611Z,15.30
2018-12-27T07:48:23.799Z,13.15
2018-12-27T07:49:29.221Z,13.25
2018-12-27T07:50:34.231Z,12.70
2018-12-27T07:51:39.264Z,13.00
2018-12-27T07:52:45.943Z,12.07
2018-12-27T07:53:51.016Z,11.90
2018-12-27T07:54:56.570Z,11.12
2018-12-27T07:56:01.660Z,10.75
2018-12-27T07:57:06.862Z,10.00
2018-12-27T07:58:14.883Z,9.28
2018-12-27T07:59:20.512Z,9.28
2018-12-27T08:00:25.648Z,9.75
2018-12-27T08:01:31.117Z,8.50
2018-12-27T08:02:38.532Z,11.22
2018-12-27T08:03:43.541Z,9.10
2018-12-27T08:04:50.146Z,9.15
2018-12-27T08:05:55.171Z,10.30
2018-12-27T08:07:00.799Z,44.40
2018-12-27T08:08:06.178Z,160.72
2018-12-27T08:09:11.349Z,31.60
2018-12-27T08:10:16.476Z,27.17
2018-12-27T08:11:21.503Z,24.20
2018-12-27T08:12:28.889Z,15.10
2018-12-27T08:13:33.931Z,16.80
2018-12-27T08:14:41.451Z,14.68
2018-12-27T08:15:49.012Z,15.25
2018-12-27T08:16:54.068Z,13.28
2018-12-27T08:17:59.495Z,14.73
2018-12-27T08:19:04.573Z,13.22
2018-12-27T08:20:10.007Z,12.30
2018-12-27T08:21:16.344Z,11.15
2018-12-27T08:22:21.364Z,11.25
2018-12-27T08:23:26.390Z,11.50
2018-12-27T08:24:36.240Z,11.63
2018-12-27T08:25:41.520Z,11.00
2018-12-27T08:26:48.691Z,11.95
2018-12-27T08:27:53.913Z,10.90
2018-12-27T08:29:01.537Z,11.03
2018-12-27T08:30:08.196Z,10.60
2018-12-27T08:31:13.981Z,11.38
2018-12-27T08:32:20.519Z,10.18
2018-12-27T08:33:25.588Z,11.25
2018-12-27T08:34:33.435Z,10.55
2018-12-27T08:35:38.974Z,9.75
2018-12-27T08:36:44.029Z,9.15
2018-12-27T08:37:50.311Z,10.03
2018-12-27T08:38:55.871Z,9.50
2018-12-27T08:40:03.834Z,10.50
2018-12-27T08:41:09.053Z,8.65
2018-12-27T08:42:21.107Z,10.05
2018-12-27T08:43:26.294Z,9.28
2018-12-27T08:44:33.635Z,10.93
2018-12-27T08:45:39.303Z,8.18
2018-12-27T08:46:44.431Z,9.93
2018-12-27T08:47:49.564Z,9.80
2018-12-27T08:49:01.820Z,9.48
2018-12-27T08:50:08.984Z,10.25
2018-12-27T08:51:14.271Z,9.20
2018-12-27T08:52:21.711Z,9.93
2018-12-27T08:53:27.420Z,9.75
2018-12-27T08:54:32.561Z,9.85
2018-12-27T08:55:48.421Z,8.88
2018-12-27T08:56:58.312Z,10.03
2018-12-27T08:58:07.072Z,8.45
2018-12-27T08:59:12.340Z,9.05
2018-12-27T09:00:19.007Z,9.15
2018-12-27T09:01:43.461Z,10.03
2018-12-27T09:02:50.119Z,9.98
2018-12-27T09:04:00.533Z,8.95
2018-12-27T09:05:06.800Z,8.33
2018-12-27T09:06:12.013Z,10.35
2018-12-27T09:07:17.298Z,8.33
2018-12-27T09:08:24.178Z,9.25
2018-12-27T09:09:29.792Z,8.95
2018-12-27T09:10:35.519Z,9.10
2018-12-27T09:11:40.839Z,8.85
2018-12-27T09:12:47.382Z,9.40
2018-12-27T09:14:02.275Z,9.00
2018-12-27T09:15:10.246Z,8.50
2018-12-27T09:16:23.686Z,7.80
2018-12-27T09:17:28.696Z,8.95
2018-12-27T09:18:33.817Z,9.83
2018-12-27T09:19:39.887Z,11.60
2018-12-27T09:20:45.934Z,9.88
2018-12-27T09:21:53.195Z,10.15
2018-12-27T09:23:01.579Z,8.50
2018-12-27T09:24:09.250Z,9.33
2018-12-27T09:25:15.634Z,9.08
2018-12-27T09:26:21.835Z,10.08
2018-12-27T09:27:28.625Z,7.95
2018-12-27T09:28:34.281Z,8.55
2018-12-27T09:29:40.326Z,8.70
2018-12-27T09:30:45.333Z,8.83
2018-12-27T09:31:53.114Z,8.28
2018-12-27T09:32:59.807Z,9.25
2018-12-27T09:34:09.047Z,9.60
2018-12-27T09:35:14.190Z,10.03
2018-12-27T09:36:19.230Z,8.78
2018-12-27T16:33:26.048Z,22.52
2018-12-27T16:34:34.684Z,22.30
2018-12-27T16:35:40.280Z,20.88
2018-12-27T16:36:51.396Z,20.77
2018-12-27T16:37:56.639Z,20.85
2018-12-27T16:39:03.114Z,20.82
2018-12-27T16:40:12.481Z,18.77
2018-12-27T16:41:17.445Z,14.85
2018-12-27T16:42:22.689Z,16.82
2018-12-27T16:43:30.980Z,16.15
2018-12-27T16:44:35.981Z,15.90
2018-12-27T16:45:41.216Z,28.83
2018-12-27T16:51:24.497Z,23.83
2018-12-27T16:52:36.724Z,22.52
2018-12-27T16:53:43.082Z,15.25
2018-12-27T16:54:48.087Z,14.90
2018-12-27T16:55:53.228Z,13.28
2018-12-27T17:08:22.971Z,20.08
2018-12-27T17:09:32.689Z,17.82
2018-12-27T17:10:37.485Z,18.02
2018-12-27T17:11:42.796Z,19.32
2018-12-27T17:12:47.650Z,24.07
2018-12-27T17:13:51.779Z,18.55
2018-12-27T17:15:14.174Z,16.62
2018-12-27T17:16:18.673Z,13.85
2018-12-27T17:17:24.368Z,14.50
2018-12-27T17:18:31.004Z,28.52
2018-12-27T17:19:38.415Z,41.63
2018-12-27T17:20:43.958Z,80.87
2018-12-27T17:21:49.191Z,55.88
2018-12-27T17:22:54.370Z,33.02
2018-12-27T17:23:59.337Z,28.85
2018-12-27T17:25:04.955Z,32.23
2018-12-27T17:26:10.630Z,30.43
2018-12-27T17:27:16.194Z,30.08
2018-12-27T17:28:22.454Z,23.15
2018-12-27T17:29:31.203Z,17.70
2018-12-27T17:30:40.169Z,15.45
2018-12-27T17:31:48.674Z,13.58
2018-12-27T17:32:58.483Z,13.43
2018-12-27T17:34:03.518Z,13.48
2018-12-27T17:35:08.559Z,12.68
2018-12-27T17:36:13.613Z,11.25
2018-12-27T17:37:23.279Z,12.50
2018-12-27T17:38:25.530Z,10.80
2018-12-27T17:39:32.186Z,10.53
2018-12-27T17:40:37.614Z,10.82
2018-12-27T17:41:42.901Z,9.70
2018-12-27T17:42:49.423Z,11.25
2018-12-27T17:43:54.897Z,11.55
2018-12-27T17:45:00.043Z,11.97
2018-12-27T17:46:05.396Z,11.28
2018-12-27T17:47:10.427Z,12.78
2018-12-27T17:48:15.302Z,12.88
2018-12-27T17:49:20.141Z,12.50
2018-12-27T17:50:25.479Z,14.10
2018-12-27T17:51:38.823Z,12.88
2018-12-27T17:52:43.813Z,13.25
2018-12-27T17:53:49.077Z,13.75
2018-12-27T17:54:54.138Z,15.63
2018-12-27T17:55:59.577Z,20.23
2018-12-27T17:57:04.489Z,20.08
2018-12-27T17:59:41.154Z,16.75
2018-12-27T18:00:50.755Z,16.80
2018-12-27T18:02:01.317Z,26.20
2018-12-27T18:03:09.176Z,30.12
2018-12-27T18:04:16.278Z,34.65
2018-12-27T18:05:21.294Z,33.67
2018-12-27T18:06:33.215Z,27.70
2018-12-27T18:07:41.692Z,26.40
2018-12-27T18:08:55.763Z,19.07
2018-12-27T18:10:08.032Z,17.32
2018-12-27T18:11:26.566Z,15.50
2018-12-27T18:12:34.683Z,16.10
2018-12-27T18:13:46.686Z,17.02
2018-12-27T18:15:03.787Z,16.95
2018-12-27T18:16:08.775Z,16.57
2018-12-27T18:17:15.602Z,17.80
2018-12-27T18:18:28.413Z,17.32
2018-12-27T18:19:40.346Z,16.80
2018-12-27T18:20:46.684Z,22.35
2018-12-27T18:21:51.709Z,21.52
2018-12-27T18:23:03.204Z,20.27
2018-12-27T18:24:13.021Z,20.48
2018-12-27T18:25:20.275Z,16.70
2018-12-27T18:26:26.380Z,14.38
2018-12-27T18:27:42.484Z,14.33
2018-12-27T18:28:50.812Z,15.03
2018-12-27T18:30:00.219Z,13.88
2018-12-27T18:31:14.242Z,14.75
2018-12-27T18:32:19.190Z,11.97
2018-12-27T18:33:27.334Z,12.73
2018-12-27T18:34:32.187Z,12.25
2018-12-27T18:35:37.254Z,13.10
2018-12-27T18:36:58.100Z,14.53
2018-12-27T18:38:03.250Z,14.18
2018-12-27T18:39:13.173Z,14.20
2018-12-27T18:40:29.962Z,15.03
2018-12-27T18:41:39.058Z,13.30
2018-12-27T18:42:46.879Z,11.97
2018-12-27T18:43:59.433Z,13.15
2018-12-27T18:45:16.639Z,13.38
2018-12-27T18:46:24.903Z,13.10
2018-12-27T18:47:36.364Z,12.93
2018-12-27T18:48:47.161Z,13.50
2018-12-27T18:49:54.154Z,14.35
2018-12-27T18:51:02.085Z,15.13
2018-12-27T18:52:20.350Z,14.95
2018-12-27T18:53:39.642Z,15.20
2018-12-27T18:54:58.289Z,14.15
2018-12-27T18:56:03.519Z,14.07
2018-12-27T18:57:19.227Z,14.05
2018-12-27T18:58:29.075Z,14.83
2018-12-27T18:59:36.587Z,13.32
2018-12-27T19:00:49.280Z,13.78
2018-12-27T19:01:59.584Z,13.62
2018-12-27T19:03:10.443Z,13.40
2018-12-27T19:04:19.176Z,13.10
2018-12-27T19:05:39.012Z,12.43
2018-12-27T19:06:41.759Z,13.95
2018-12-27T19:07:52.113Z,12.53
2018-12-27T19:08:58.225Z,13.62
2018-12-27T19:10:06.761Z,12.98
2018-12-27T19:11:47.597Z,12.53
2018-12-27T19:13:18.718Z,11.65
2018-12-27T19:14:24.192Z,12.50
2018-12-27T19:16:06.692Z,11.70
2018-12-27T19:17:27.914Z,12.85
2018-12-27T19:18:42.394Z,12.73
2018-12-27T19:19:49.080Z,14.30
2018-12-27T19:21:21.257Z,18.35
2018-12-27T19:22:54.210Z,17.35
2018-12-27T19:24:03.622Z,16.82
2018-12-27T19:25:10.346Z,20.72
2018-12-27T19:26:15.438Z,15.18
2018-12-27T19:27:31.801Z,18.20
2018-12-27T19:28:39.904Z,17.20
2018-12-27T19:29:44.574Z,39.40
2018-12-27T19:30:49.456Z,25.37
2018-12-27T19:31:54.415Z,14.55
2018-12-27T19:33:02.498Z,15.13
2018-12-27T19:34:07.693Z,14.63
2018-12-27T19:35:14.023Z,13.90
2018-12-27T19:36:19.198Z,16.82
2018-12-27T19:37:24.669Z,17.92
2018-12-27T19:38:29.787Z,16.05
2018-12-27T19:39:34.842Z,16.15
2018-12-27T19:40:44.092Z,14.55
2018-12-27T19:41:52.505Z,14.80
2018-12-27T19:43:03.707Z,14.78
2018-12-27T19:44:09.553Z,14.98
2018-12-27T19:45:16.088Z,13.32
2018-12-27T19:46:22.368Z,12.73
2018-12-27T19:47:59.029Z,12.50
2018-12-27T19:49:04.476Z,11.90
2018-12-27T19:50:11.359Z,13.05
2018-12-27T19:51:23.074Z,12.20
2018-12-27T19:52:27.855Z,11.30
2018-12-27T19:53:36.154Z,11.95
2018-12-27T19:54:43.044Z,12.30
2018-12-27T19:55:49.093Z,12.53
2018-12-27T19:56:55.345Z,12.25
2018-12-27T19:58:03.666Z,11.03
2018-12-27T19:59:55.071Z,11.33
2018-12-27T20:01:07.858Z,11.68
2018-12-27T20:02:32.391Z,12.05
2018-12-27T20:03:43.407Z,11.85
2018-12-27T20:05:03.714Z,10.98
2018-12-27T20:06:11.326Z,11.45
2018-12-27T20:07:31.276Z,11.40
2018-12-27T20:08:39.506Z,9.95
2018-12-27T20:09:59.024Z,10.18
2018-12-27T20:11:08.780Z,9.50
2018-12-27T20:12:46.099Z,12.30
2018-12-27T20:13:55.963Z,10.80
2018-12-27T20:15:13.282Z,10.95
2018-12-27T20:16:42.754Z,10.18
2018-12-27T20:18:47.219Z,11.28
2018-12-27T20:19:58.695Z,14.30
2018-12-27T20:21:05.970Z,16.80
2018-12-27T20:22:14.084Z,17.82
2018-12-27T20:23:28.265Z,18.30
2018-12-27T20:24:42.541Z,17.30
2018-12-27T20:25:51.565Z,12.93
2018-12-27T20:26:57.224Z,13.22
2018-12-27T20:28:05.423Z,13.25
2018-12-27T20:29:10.350Z,13.65
2018-12-27T20:30:17.636Z,14.60
2018-12-27T20:31:27.094Z,13.72
2018-12-27T20:32:34.311Z,13.05
2018-12-27T20:33:42.440Z,25.00
2018-12-27T20:34:48.198Z,18.42
2018-12-27T20:35:53.410Z,17.50
2018-12-27T20:37:00.066Z,13.85
2018-12-27T20:38:08.417Z,12.60
2018-12-27T20:39:13.447Z,13.10
2018-12-27T20:40:23.786Z,13.18
2018-12-27T20:41:31.247Z,24.90
2018-12-27T20:42:37.477Z,24.52
2018-12-27T20:43:42.293Z,18.48
2018-12-27T20:44:48.509Z,180.10
2018-12-27T20:46:25.076Z,101.97
2018-12-27T20:47:35.305Z,85.45
2018-12-27T20:48:44.562Z,79.87
2018-12-27T20:49:53.471Z,35.40
2018-12-27T20:50:58.960Z,29.23
2018-12-27T20:52:09.226Z,29.70
2018-12-27T20:53:15.191Z,98.33
2018-12-27T20:54:20.356Z,31.40
2018-12-27T20:55:29.503Z,134.12
2018-12-27T20:56:34.757Z,119.87
2018-12-27T20:57:40.324Z,98.05
2018-12-27T20:58:52.193Z,56.30
2018-12-27T21:00:02.331Z,47.93
2018-12-27T21:01:10.138Z,42.38
2018-12-27T21:02:18.311Z,30.95
2018-12-27T21:03:25.209Z,24.10
2018-12-27T21:04:36.089Z,25.02
2018-12-27T21:05:39.095Z,28.17
2018-12-27T21:06:46.408Z,18.27
2018-12-27T21:07:51.937Z,22.90
2018-12-27T21:08:57.486Z,22.60
2018-12-27T21:10:05.503Z,21.50
2018-12-27T21:11:15.000Z,20.77
2018-12-27T21:12:20.812Z,24.67
2018-12-27T21:13:29.144Z,24.47
2018-12-27T21:14:34.094Z,19.05
2018-12-27T21:15:39.273Z,19.92
2018-12-27T21:16:46.077Z,16.37
2018-12-27T21:17:54.414Z,16.95
2018-12-27T21:18:59.379Z,15.18
2018-12-27T21:20:04.428Z,14.25
2018-12-27T21:21:10.029Z,13.08
2018-12-27T21:22:15.330Z,13.48
2018-12-27T21:23:23.900Z,12.50
2018-12-27T21:24:37.974Z,15.00
2018-12-27T21:25:51.241Z,14.45
2018-12-27T21:26:57.118Z,11.78
2018-12-27T21:28:02.004Z,11.78
2018-12-27T21:29:10.536Z,13.05
2018-12-27T21:30:17.460Z,12.73
2018-12-27T21:31:23.025Z,13.83
2018-12-27T21:32:28.392Z,13.13
2018-12-27T21:33:36.962Z,14.60
2018-12-27T21:34:41.915Z,13.22
2018-12-27T21:35:49.549Z,14.80
2018-12-27T21:36:54.775Z,13.45
2018-12-27T21:38:00.182Z,14.47
2018-12-27T21:39:07.648Z,12.80
2018-12-27T21:40:15.247Z,13.40
2018-12-27T21:41:31.097Z,12.93
2018-12-27T21:42:52.012Z,11.70
2018-12-27T21:43:44.463Z,12.60
2018-12-27T21:45:03.371Z,12.20
2018-12-27T21:46:24.177Z,12.43
2018-12-27T21:47:38.281Z,12.05
2018-12-27T21:49:13.900Z,12.58
2018-12-27T21:50:25.631Z,11.65
2018-12-27T21:51:37.444Z,10.85